1FL5 weather

West Bay Creek Seaplane Base
West Bay, Florida, United States

Public forecast

Using degrees Fahrenheit for public forecast. Weather courtesy of forecast.io.

METAR (pilot weather report)

Closest report is Northwest Florida Beaches International Airport, 4.9 nm (9.0 km) NE. Retrieved 2018/01/20 17:53 UTC (34 minutes ago):

KECP 201753Z 36006KT 10SM CLR 17/02 A3028 RMK AO2 SLP265 T01720022 10178 20000 58019

TAF (pilot weather forecast)

Closest forecast is Northwest Florida Beaches International Airport, 4.9 nm (9.0 km) NE. Retrieved 2018/01/20 18:22 UTC (5 minutes ago):

TAF KECP 201720Z 2018/2118 06004KT P6SM SCT150 BKN250